createdAt,value
2019-06-01T00:00:20.253Z,96.14
2019-06-01T00:01:20.275Z,96.59
2019-06-01T00:02:20.225Z,96.38
2019-06-01T00:03:20.294Z,96.38
2019-06-01T00:04:20.204Z,96.38
2019-06-01T00:05:20.194Z,96.28
2019-06-01T00:06:20.183Z,96.38
2019-06-01T00:07:20.167Z,96.44
2019-06-01T00:08:20.158Z,96.08
2019-06-01T00:09:20.356Z,95.83
2019-06-01T00:10:20.133Z,95.67
2019-06-01T00:11:20.122Z,95.94
2019-06-01T00:12:20.115Z,95.67
2019-06-01T00:13:20.131Z,95.06
2019-06-01T00:14:20.087Z,94.82
2019-06-01T00:15:20.147Z,95.32
2019-06-01T00:16:20.074Z,94.10
2019-06-01T00:17:20.129Z,93.90
2019-06-01T00:18:20.042Z,94.15
2019-06-01T00:19:20.035Z,94.86
2019-06-01T00:20:20.062Z,94.86
2019-06-01T00:21:20.076Z,95.57
2019-06-01T00:22:19.997Z,95.26
2019-06-01T00:23:19.986Z,95.17
2019-06-01T00:24:19.984Z,95.67
2019-06-01T00:25:19.967Z,94.86
2019-06-01T00:26:19.957Z,94.60
2019-06-01T00:27:20.021Z,95.21
2019-06-01T00:28:19.985Z,96.33
2019-06-01T00:29:19.918Z,96.33
2019-06-01T00:30:26.948Z,95.72
2019-06-01T00:31:20.922Z,94.95
2019-06-01T00:32:19.891Z,95.25
2019-06-01T00:33:19.942Z,95.97
2019-06-01T00:34:19.871Z,96.37
2019-06-01T00:35:19.851Z,96.58
2019-06-01T00:36:19.838Z,96.58
2019-06-01T00:37:19.829Z,96.98
2019-06-01T00:38:20.056Z,96.88
2019-06-01T00:39:19.875Z,97.03
2019-06-01T00:40:19.805Z,97.29
2019-06-01T00:41:19.783Z,97.89
2019-06-01T00:42:19.770Z,96.98
2019-06-01T00:43:19.821Z,96.88
2019-06-01T00:44:19.764Z,96.37
2019-06-01T00:45:19.949Z,96.01
2019-06-01T00:46:19.725Z,96.27
2019-06-01T00:47:19.717Z,96.88
2019-06-01T00:48:19.702Z,97.29
2019-06-01T00:49:19.692Z,98.00
2019-06-01T00:50:19.683Z,97.69
2019-06-01T00:51:19.736Z,96.68
2019-06-01T00:52:19.656Z,96.37
2019-06-01T00:53:19.650Z,96.07
2019-06-01T00:54:19.634Z,96.68
2019-06-01T00:55:19.629Z,96.88
2019-06-01T00:56:19.636Z,96.88
2019-06-01T00:57:22.086Z,96.98
2019-06-01T00:58:19.590Z,96.27
2019-06-01T00:59:19.578Z,96.78
2019-06-01T01:00:19.569Z,96.17
2019-06-01T01:01:19.556Z,96.22
2019-06-01T01:02:19.545Z,96.88
2019-06-01T01:03:19.754Z,96.92
2019-06-01T01:04:19.522Z,96.62
2019-06-01T01:05:19.511Z,96.98
2019-06-01T01:06:19.512Z,97.23
2019-06-01T01:07:19.494Z,96.83
2019-06-01T01:08:19.478Z,97.07
2019-06-01T01:09:19.679Z,97.53
2019-06-01T01:10:19.455Z,96.97
2019-06-01T01:11:19.446Z,97.58
2019-06-01T01:12:19.434Z,97.78
2019-06-01T01:13:19.423Z,97.74
2019-06-01T01:14:19.409Z,97.78
2019-06-01T01:15:19.620Z,97.03
2019-06-01T01:16:19.387Z,96.87
2019-06-01T01:17:19.376Z,96.97
2019-06-01T01:18:19.367Z,96.87
2019-06-01T01:19:19.354Z,96.46
2019-06-01T01:20:19.346Z,96.77
2019-06-01T01:21:19.410Z,96.36
2019-06-01T01:22:19.323Z,96.77
2019-06-01T01:23:19.310Z,96.36
2019-06-01T01:24:19.299Z,96.67
2019-06-01T01:25:19.289Z,96.77
2019-06-01T01:26:19.297Z,97.69
2019-06-01T01:27:19.331Z,98.09
2019-06-01T01:28:19.256Z,97.93
2019-06-01T01:29:19.244Z,97.02
2019-06-01T01:30:19.230Z,97.12
2019-06-01T01:31:19.219Z,96.61
2019-06-01T01:32:19.208Z,97.22
2019-06-01T01:33:19.412Z,97.02
2019-06-01T01:34:19.190Z,97.22
2019-06-01T01:35:19.194Z,97.22
2019-06-01T01:36:19.163Z,97.42
2019-06-01T01:37:19.155Z,96.76
2019-06-01T01:38:19.140Z,97.88
2019-06-01T01:39:19.200Z,97.37
2019-06-01T01:40:19.147Z,97.27
2019-06-01T01:41:19.106Z,96.96
2019-06-01T01:42:19.099Z,96.86
2019-06-01T01:43:19.085Z,97.98
2019-06-01T01:44:19.073Z,97.67
2019-06-01T01:45:19.275Z,98.28
2019-06-01T01:46:19.055Z,98.59
2019-06-01T01:47:19.042Z,98.39
2019-06-01T01:48:19.029Z,98.39
2019-06-01T01:49:19.019Z,98.59
2019-06-01T01:50:19.006Z,98.74
2019-06-01T01:51:19.063Z,98.23
2019-06-01T01:52:18.984Z,97.82
2019-06-01T01:53:18.972Z,98.07
2019-06-01T01:54:18.960Z,98.07
2019-06-01T01:55:18.954Z,97.77
2019-06-01T01:56:18.941Z,98.11
2019-06-01T01:57:19.137Z,97.00
2019-06-01T01:58:18.926Z,97.34
2019-06-01T01:59:18.905Z,97.30
2019-06-01T02:00:18.894Z,98.36
2019-06-01T02:01:22.687Z,99.49
2019-06-01T02:02:18.870Z,99.75
2019-06-01T02:03:18.935Z,99.65
2019-06-01T02:04:18.847Z,99.85
2019-06-01T02:05:18.836Z,99.99
2019-06-01T02:06:18.839Z,99.95
2019-06-01T02:07:18.812Z,99.99
2019-06-01T02:08:18.814Z,99.65
2019-06-01T02:09:19.003Z,99.75
2019-06-01T02:10:18.778Z,99.54
2019-06-01T02:11:18.773Z,99.99
2019-06-01T02:12:18.754Z,99.99
2019-06-01T02:13:18.745Z,99.99
2019-06-01T02:14:18.790Z,99.95
2019-06-01T02:15:18.790Z,99.85
2019-06-01T02:16:18.725Z,99.65
2019-06-01T02:17:18.698Z,99.85
2019-06-01T02:18:18.690Z,99.54
2019-06-01T02:19:18.678Z,99.85
2019-06-01T02:20:18.668Z,99.99
2019-06-01T02:21:18.866Z,99.99
2019-06-01T02:22:18.644Z,99.99
2019-06-01T02:23:18.631Z,99.99
2019-06-01T02:24:18.619Z,99.99
2019-06-01T02:25:18.611Z,99.99
2019-06-01T02:26:18.596Z,99.99
2019-06-01T02:27:18.653Z,99.99
2019-06-01T02:28:18.573Z,99.99
2019-06-01T02:29:18.564Z,99.99
2019-06-01T02:30:18.553Z,99.99
2019-06-01T02:31:18.545Z,99.99
2019-06-01T02:32:18.534Z,99.99
2019-06-01T02:33:18.591Z,99.99
2019-06-01T02:34:18.525Z,99.99
2019-06-01T02:35:18.495Z,99.99
2019-06-01T02:36:18.490Z,99.99
2019-06-01T02:37:18.473Z,99.99
2019-06-01T02:38:18.465Z,99.99
2019-06-01T02:39:18.679Z,99.99
2019-06-01T02:40:18.442Z,99.99
2019-06-01T02:41:18.437Z,99.99
2019-06-01T02:42:18.421Z,99.99
2019-06-01T02:43:18.407Z,99.99
2019-06-01T02:44:18.395Z,99.99
2019-06-01T02:45:18.452Z,99.99
2019-06-01T02:46:18.372Z,99.99
2019-06-01T02:47:18.363Z,99.99
2019-06-01T02:48:18.365Z,99.99
2019-06-01T02:49:18.338Z,99.99
2019-06-01T02:50:18.333Z,99.99
2019-06-01T02:51:18.531Z,99.99
2019-06-01T02:52:18.311Z,99.99
2019-06-01T02:53:18.294Z,99.99
2019-06-01T02:54:18.282Z,99.99
2019-06-01T02:55:18.273Z,99.99
2019-06-01T02:56:18.258Z,99.99
2019-06-01T02:57:18.461Z,99.99
2019-06-01T02:58:18.243Z,99.99
2019-06-01T02:59:18.234Z,99.99
2019-06-01T03:00:18.213Z,99.99
2019-06-01T03:01:18.208Z,99.99
2019-06-01T03:02:18.198Z,99.99
2019-06-01T03:03:18.397Z,99.99
2019-06-01T03:04:18.170Z,99.99
2019-06-01T03:05:18.160Z,99.99
2019-06-01T03:06:18.146Z,99.99
2019-06-01T03:07:18.135Z,99.99
2019-06-01T03:08:18.125Z,99.99
2019-06-01T03:09:18.179Z,99.99
2019-06-01T03:10:18.105Z,99.99
2019-06-01T03:11:18.096Z,99.99
2019-06-01T03:12:18.089Z,99.99
2019-06-01T03:13:18.073Z,99.99
2019-06-01T03:14:18.059Z,99.99
2019-06-01T03:15:18.263Z,99.99
2019-06-01T03:16:18.039Z,99.99
2019-06-01T03:17:18.034Z,99.99
2019-06-01T03:18:18.014Z,99.99
2019-06-01T03:19:18.002Z,99.99
2019-06-01T03:20:17.994Z,99.99
2019-06-01T03:21:18.051Z,99.99
2019-06-01T03:22:17.967Z,99.99
2019-06-01T03:23:17.956Z,99.99
2019-06-01T03:24:17.951Z,99.99
2019-06-01T03:25:17.934Z,99.99
2019-06-01T03:26:17.925Z,99.99
2019-06-01T03:27:18.127Z,99.99
2019-06-01T03:28:17.901Z,99.99
2019-06-01T03:29:17.891Z,99.99
2019-06-01T03:30:17.883Z,99.99
2019-06-01T03:31:17.871Z,99.99
2019-06-01T03:32:34.408Z,99.99
2019-06-01T03:33:18.915Z,99.99
2019-06-01T03:34:17.837Z,99.99
2019-06-01T03:35:17.822Z,99.99
2019-06-01T03:36:17.811Z,99.99
2019-06-01T03:37:17.801Z,99.99
2019-06-01T03:38:17.793Z,99.99
2019-06-01T03:39:17.851Z,99.99
2019-06-01T03:40:23.824Z,99.99
2019-06-01T03:41:18.754Z,99.99
2019-06-01T03:42:17.743Z,99.99
2019-06-01T03:43:17.732Z,99.99
2019-06-01T03:44:17.720Z,99.99
2019-06-01T03:45:21.236Z,99.99
2019-06-01T03:46:17.701Z,99.99
2019-06-01T03:47:17.688Z,99.99
2019-06-01T03:48:17.678Z,99.70
2019-06-01T03:49:17.680Z,99.40
2019-06-01T03:50:17.655Z,99.09
2019-06-01T03:51:17.854Z,99.40
2019-06-01T03:52:17.633Z,98.07
2019-06-01T03:53:17.625Z,98.18
2019-06-01T03:54:17.619Z,97.31
2019-06-01T03:55:17.599Z,97.36
2019-06-01T03:56:17.587Z,96.54
2019-06-01T03:57:17.678Z,96.95
2019-06-01T03:58:17.569Z,96.91
2019-06-01T03:59:17.555Z,96.91
2019-06-01T04:00:17.543Z,97.11
2019-06-01T04:01:17.531Z,97.31
2019-06-01T04:02:17.524Z,97.06
2019-06-01T04:03:17.580Z,96.66
2019-06-01T04:04:17.505Z,96.80
2019-06-01T04:05:17.495Z,96.76
2019-06-01T04:06:17.475Z,96.66
2019-06-01T04:07:17.469Z,96.25
2019-06-01T04:08:17.458Z,96.25
2019-06-01T04:09:17.657Z,95.79
2019-06-01T04:10:17.433Z,95.29
2019-06-01T04:11:17.443Z,94.98
2019-06-01T04:12:17.407Z,94.17
2019-06-01T04:13:17.400Z,94.37
2019-06-01T04:14:17.388Z,94.27
2019-06-01T04:15:17.450Z,94.07
2019-06-01T04:16:17.362Z,94.68
2019-06-01T04:17:17.353Z,94.78
2019-06-01T04:18:17.341Z,94.78
2019-06-01T04:19:17.347Z,95.18
2019-06-01T04:20:17.318Z,95.59
2019-06-01T04:21:17.530Z,95.24
2019-06-01T04:22:17.293Z,95.18
2019-06-01T04:23:17.286Z,95.24
2019-06-01T04:24:17.270Z,95.49
2019-06-01T04:25:17.260Z,95.54
2019-06-01T04:26:17.250Z,95.54
2019-06-01T04:27:17.455Z,95.34
2019-06-01T04:28:17.228Z,95.54
2019-06-01T04:29:17.214Z,95.20
2019-06-01T04:30:17.210Z,95.30
2019-06-01T04:31:17.213Z,95.50
2019-06-01T04:32:17.179Z,96.42
2019-06-01T04:33:17.238Z,95.40
2019-06-01T04:34:17.156Z,96.27
2019-06-01T04:35:17.172Z,95.36
2019-06-01T04:36:17.137Z,95.25
2019-06-01T04:37:17.128Z,94.90
2019-06-01T04:38:17.112Z,95.10
2019-06-01T04:39:17.320Z,95.51
2019-06-01T04:40:17.098Z,94.60
2019-06-01T04:41:17.110Z,94.29
2019-06-01T04:42:17.067Z,94.25
2019-06-01T04:43:17.106Z,94.66
2019-06-01T04:44:18.416Z,94.31
2019-06-01T04:45:17.250Z,94.21
2019-06-01T04:46:17.022Z,93.40
2019-06-01T04:47:17.013Z,92.48
2019-06-01T04:48:17.013Z,93.60
2019-06-01T04:49:16.989Z,93.19
2019-06-01T04:50:16.977Z,92.48
2019-06-01T04:51:17.043Z,91.93
2019-06-01T04:52:16.955Z,93.45
2019-06-01T04:53:16.942Z,92.13
2019-06-01T04:54:16.934Z,93.15
2019-06-01T04:55:16.950Z,91.78
2019-06-01T04:56:16.909Z,89.96
2019-06-01T04:57:17.116Z,89.51
2019-06-01T04:58:16.887Z,89.21
2019-06-01T04:59:16.875Z,90.62
2019-06-01T05:00:25.743Z,89.92
2019-06-01T05:01:17.857Z,88.96
2019-06-01T05:02:16.850Z,89.77
2019-06-01T05:03:17.056Z,89.98
2019-06-01T05:04:16.921Z,88.86
2019-06-01T05:05:16.808Z,86.59
2019-06-01T05:06:16.815Z,87.81
2019-06-01T05:07:16.821Z,87.30
2019-06-01T05:08:16.773Z,87.66
2019-06-01T05:09:16.894Z,87.60
2019-06-01T05:10:16.755Z,87.40
2019-06-01T05:11:16.742Z,88.78
2019-06-01T05:12:16.727Z,87.46
2019-06-01T05:13:16.725Z,87.36
2019-06-01T05:14:16.766Z,88.02
2019-06-01T05:15:16.768Z,87.22
2019-06-01T05:16:16.727Z,87.82
2019-06-01T05:17:16.857Z,87.42
2019-06-01T05:18:19.518Z,87.62
2019-06-01T05:19:16.837Z,88.33
2019-06-01T05:20:16.719Z,88.59
2019-06-01T05:21:16.937Z,87.93
2019-06-01T05:22:16.774Z,88.39
2019-06-01T05:23:16.980Z,87.28
2019-06-01T05:24:17.178Z,86.47
2019-06-01T05:25:17.170Z,87.64
2019-06-01T05:26:17.162Z,87.54
2019-06-01T05:27:17.327Z,85.93
2019-06-01T05:28:17.469Z,87.64
2019-06-01T05:29:18.026Z,87.34
2019-06-01T05:30:17.624Z,86.49
2019-06-01T05:31:23.436Z,86.49
2019-06-01T05:32:18.731Z,85.38
2019-06-01T05:33:31.044Z,86.19
2019-06-01T05:34:18.375Z,84.93
2019-06-01T05:35:16.469Z,84.63
2019-06-01T05:36:16.459Z,85.60
2019-06-01T05:37:16.708Z,85.70
2019-06-01T05:38:16.630Z,85.25
2019-06-01T05:39:16.469Z,84.11
2019-06-01T05:40:16.714Z,82.79
2019-06-01T05:41:16.681Z,84.41
2019-06-01T05:42:16.963Z,82.79
2019-06-01T05:43:19.257Z,81.85
2019-06-01T05:44:17.046Z,82.15
2019-06-01T05:45:17.169Z,82.11
2019-06-01T05:46:16.345Z,80.60
2019-06-01T05:47:16.334Z,80.00
2019-06-01T05:48:23.619Z,78.79
2019-06-01T05:49:18.588Z,79.60
2019-06-01T05:50:16.434Z,79.19
2019-06-01T05:51:18.443Z,80.06
2019-06-01T05:52:16.690Z,78.47
2019-06-01T05:53:16.714Z,78.17
2019-06-01T05:54:16.700Z,77.33
2019-06-01T05:55:16.799Z,77.13
2019-06-01T05:56:16.856Z,76.29
2019-06-01T05:57:16.795Z,75.55
2019-06-01T05:58:17.262Z,74.01
2019-06-01T05:59:16.200Z,73.67
2019-06-01T06:00:17.222Z,71.20
2019-06-01T06:01:16.493Z,70.46
2019-06-01T06:02:17.374Z,68.79
2019-06-01T06:03:21.774Z,68.46
2019-06-01T06:04:17.561Z,67.55
2019-06-01T06:05:16.658Z,66.13
2019-06-01T06:06:16.120Z,66.16
2019-06-01T06:07:16.840Z,66.32
2019-06-01T06:08:16.100Z,68.09
2019-06-01T06:09:17.098Z,68.16
2019-06-01T06:10:16.139Z,68.39
2019-06-01T06:11:16.976Z,69.53
2019-06-01T06:12:17.184Z,69.42
2019-06-01T06:13:17.356Z,69.56
2019-06-01T06:14:17.430Z,70.06
2019-06-01T06:15:16.024Z,70.36
2019-06-01T06:16:16.010Z,68.62
2019-06-01T06:17:17.509Z,67.63
2019-06-01T06:18:15.990Z,68.73
2019-06-01T06:19:20.221Z,68.23
2019-06-01T06:20:16.032Z,68.23
2019-06-01T06:21:16.093Z,67.63
2019-06-01T06:22:16.206Z,67.66
2019-06-01T06:23:16.480Z,67.86
2019-06-01T06:24:16.391Z,68.29
2019-06-01T06:25:16.124Z,68.32
2019-06-01T06:26:17.292Z,69.49
2019-06-01T06:27:16.455Z,67.99
2019-06-01T06:28:16.685Z,67.76
2019-06-01T06:29:16.903Z,67.55
2019-06-01T06:30:16.932Z,67.66
2019-06-01T06:31:17.018Z,67.05
2019-06-01T06:32:17.068Z,66.93
2019-06-01T06:33:15.825Z,66.02
2019-06-01T06:34:15.817Z,66.72
2019-06-01T06:35:15.803Z,66.82
2019-06-01T06:36:15.789Z,66.93
2019-06-01T06:37:15.865Z,67.02
2019-06-01T06:38:15.766Z,66.66
2019-06-01T06:39:15.864Z,66.42
2019-06-01T06:40:16.005Z,65.92
2019-06-01T06:41:16.063Z,66.13
2019-06-01T06:42:16.086Z,66.42
2019-06-01T06:43:21.222Z,66.22
2019-06-01T06:44:16.710Z,66.19
2019-06-01T06:45:16.561Z,65.72
2019-06-01T06:46:16.557Z,64.46
2019-06-01T06:47:16.663Z,63.37
2019-06-01T06:48:16.880Z,61.69
2019-06-01T06:49:16.977Z,62.24
2019-06-01T06:50:16.448Z,63.53
2019-06-01T06:51:15.643Z,64.13
2019-06-01T06:52:15.611Z,64.30
2019-06-01T06:53:25.418Z,61.94
2019-06-01T06:54:17.657Z,61.06
2019-06-01T06:55:15.758Z,58.69
2019-06-01T06:56:15.745Z,57.86
2019-06-01T06:57:15.964Z,58.26
2019-06-01T06:58:15.997Z,57.46
2019-06-01T06:59:16.199Z,56.54
2019-06-01T07:00:16.377Z,56.74
2019-06-01T07:01:16.764Z,56.21
2019-06-01T07:02:16.688Z,55.35
2019-06-01T07:03:15.489Z,55.35
2019-06-01T07:04:15.479Z,56.61
2019-06-01T07:05:15.470Z,56.71
2019-06-01T07:06:15.528Z,56.59
2019-06-01T07:07:15.443Z,54.50
2019-06-01T07:08:15.432Z,55.52
2019-06-01T07:09:15.437Z,54.82
2019-06-01T07:10:15.410Z,55.10
2019-06-01T07:11:15.411Z,55.12
2019-06-01T07:12:15.598Z,54.80
2019-06-01T07:13:15.380Z,54.38
2019-06-01T07:14:15.375Z,54.15
2019-06-01T07:15:15.367Z,54.13
2019-06-01T07:16:15.343Z,52.98
2019-06-01T07:17:15.994Z,51.77
2019-06-01T07:18:15.386Z,51.13
2019-06-01T07:19:15.324Z,50.88
2019-06-01T07:20:15.310Z,49.20
2019-06-01T07:21:15.294Z,49.57
2019-06-01T07:22:17.156Z,48.96
2019-06-01T07:23:15.268Z,48.71
2019-06-01T07:24:15.466Z,48.04
2019-06-01T07:25:15.244Z,47.13
2019-06-01T07:26:15.265Z,48.07
2019-06-01T07:27:15.223Z,48.66
2019-06-01T07:28:15.253Z,48.12
2019-06-01T07:29:15.237Z,46.89
2019-06-01T07:30:15.266Z,47.55
2019-06-01T07:31:15.180Z,48.58
2019-06-01T07:32:15.171Z,50.01
2019-06-01T07:33:15.181Z,51.10
2019-06-01T07:34:29.405Z,49.99
2019-06-01T07:35:16.203Z,50.21
2019-06-01T07:36:15.128Z,50.53
2019-06-01T07:37:15.115Z,50.98
2019-06-01T07:38:15.101Z,52.39
2019-06-01T07:39:15.094Z,52.59
2019-06-01T07:40:15.083Z,52.76
2019-06-01T07:41:15.150Z,52.34
2019-06-01T07:42:15.072Z,52.76
2019-06-01T07:43:15.048Z,52.91
2019-06-01T07:44:15.044Z,53.92
2019-06-01T07:45:15.027Z,54.82
2019-06-01T07:46:15.017Z,53.70
2019-06-01T07:47:15.221Z,54.55
2019-06-01T07:48:15.010Z,54.35
2019-06-01T07:49:14.994Z,55.04
2019-06-01T07:50:14.974Z,52.81
2019-06-01T07:51:14.966Z,52.88
2019-06-01T07:52:14.953Z,51.94
2019-06-01T07:53:15.006Z,51.23
2019-06-01T07:54:14.941Z,51.62
2019-06-01T07:55:14.918Z,52.01
2019-06-01T07:56:14.909Z,50.29
2019-06-01T07:57:14.898Z,49.96
2019-06-01T07:58:14.897Z,49.74
2019-06-01T07:59:14.942Z,50.02
2019-06-01T08:00:14.905Z,50.46
2019-06-01T08:01:14.859Z,51.79
2019-06-01T08:02:14.853Z,51.77
2019-06-01T08:03:14.839Z,52.86
2019-06-01T08:04:14.822Z,52.54
2019-06-01T08:05:15.032Z,52.01
2019-06-01T08:06:14.801Z,52.29
2019-06-01T08:07:14.797Z,52.61
2019-06-01T08:08:14.783Z,52.96
2019-06-01T08:09:14.798Z,52.56
2019-06-01T08:10:14.776Z,52.44
2019-06-01T08:11:14.815Z,51.82
2019-06-01T08:12:14.736Z,51.72
2019-06-01T08:13:14.729Z,50.78
2019-06-01T08:14:14.714Z,49.77
2019-06-01T08:15:14.703Z,49.52
2019-06-01T08:16:14.692Z,48.61
2019-06-01T08:17:14.746Z,47.94
2019-06-01T08:18:14.671Z,48.56
2019-06-01T08:19:14.663Z,48.39
2019-06-01T08:20:14.651Z,48.02
2019-06-01T08:21:14.638Z,47.80
2019-06-01T08:22:14.628Z,48.34
2019-06-01T08:23:14.685Z,49.57
2019-06-01T08:24:14.704Z,51.35
2019-06-01T08:25:14.600Z,51.05
2019-06-01T08:26:14.585Z,50.95
2019-06-01T08:27:14.574Z,52.19
2019-06-01T08:28:14.840Z,50.78
2019-06-01T08:29:14.624Z,50.48
2019-06-01T08:30:14.541Z,49.77
2019-06-01T08:31:14.529Z,49.67
2019-06-01T08:32:14.519Z,48.96
2019-06-01T08:33:14.508Z,48.02
2019-06-01T08:34:14.497Z,48.02
2019-06-01T08:35:14.555Z,48.22
2019-06-01T08:36:14.475Z,47.41
2019-06-01T08:37:14.464Z,49.05
2019-06-01T08:38:14.453Z,48.91
2019-06-01T08:39:14.443Z,48.49
2019-06-01T08:40:14.432Z,47.36
2019-06-01T08:41:14.633Z,47.28
2019-06-01T08:42:14.414Z,46.87
2019-06-01T08:43:14.404Z,46.65
2019-06-01T08:44:14.388Z,45.25
2019-06-01T08:45:14.378Z,44.54
2019-06-01T08:46:14.367Z,45.03
2019-06-01T08:47:14.569Z,44.93
2019-06-01T08:48:14.346Z,44.71
2019-06-01T08:49:14.338Z,44.42
2019-06-01T08:50:14.328Z,43.53
2019-06-01T08:51:14.316Z,45.40
2019-06-01T08:52:14.301Z,45.92
2019-06-01T08:53:14.361Z,46.65
2019-06-01T08:54:14.280Z,46.65
2019-06-01T08:55:14.276Z,46.55
2019-06-01T08:56:14.267Z,46.06
2019-06-01T08:57:14.248Z,44.95
2019-06-01T08:58:14.310Z,46.15
2019-06-01T08:59:14.296Z,46.43
2019-06-01T09:00:14.222Z,44.83
2019-06-01T09:01:14.206Z,46.50
2019-06-01T09:02:14.206Z,47.48
2019-06-01T09:03:14.190Z,46.67
2019-06-01T09:04:14.183Z,46.47
2019-06-01T09:05:24.039Z,46.33
2019-06-01T09:06:15.151Z,45.52
2019-06-01T09:07:14.142Z,44.44
2019-06-01T09:08:14.131Z,44.73
2019-06-01T09:09:14.120Z,43.46
2019-06-01T09:10:14.114Z,45.45
2019-06-01T09:11:14.310Z,45.74
2019-06-01T09:12:14.160Z,44.54
2019-06-01T09:13:14.082Z,44.73
2019-06-01T09:14:14.092Z,43.18
2019-06-01T09:15:14.070Z,45.27
2019-06-01T09:16:14.068Z,48.00
2019-06-01T09:17:18.308Z,46.25
2019-06-01T09:18:14.023Z,46.23
2019-06-01T09:19:14.044Z,45.05
2019-06-01T09:20:14.006Z,44.42
2019-06-01T09:21:14.000Z,43.18
2019-06-01T09:22:13.981Z,42.86
2019-06-01T09:23:14.061Z,42.29
2019-06-01T09:24:13.963Z,42.80
2019-06-01T09:25:13.950Z,42.92
2019-06-01T09:26:13.940Z,42.79
2019-06-01T09:27:13.930Z,41.17
2019-06-01T09:28:13.918Z,40.08
2019-06-01T09:29:14.120Z,40.16
2019-06-01T09:30:13.897Z,40.35
2019-06-01T09:31:13.887Z,40.37
2019-06-01T09:32:13.881Z,40.53
2019-06-01T09:33:13.865Z,42.43
2019-06-01T09:34:13.854Z,42.80
2019-06-01T09:35:13.932Z,42.55
2019-06-01T09:36:13.832Z,42.02
2019-06-01T09:37:13.822Z,42.19
2019-06-01T09:38:13.814Z,41.96
2019-06-01T09:39:13.822Z,40.47
2019-06-01T09:40:13.796Z,40.41
2019-06-01T09:41:13.860Z,40.92
2019-06-01T09:42:13.772Z,42.86
2019-06-01T09:43:13.759Z,42.75
2019-06-01T09:44:13.747Z,41.74
2019-06-01T09:45:13.740Z,40.31
2019-06-01T09:46:13.727Z,41.88
2019-06-01T09:47:13.782Z,40.45
2019-06-01T09:48:13.711Z,38.90
2019-06-01T09:49:13.697Z,36.83
2019-06-01T09:50:13.688Z,37.87
2019-06-01T09:51:13.677Z,40.51
2019-06-01T09:52:13.666Z,41.00
2019-06-01T09:53:13.724Z,40.45
2019-06-01T09:54:13.643Z,40.64
2019-06-01T09:55:13.632Z,39.03
2019-06-01T09:56:13.623Z,37.82
2019-06-01T09:57:13.616Z,38.88
2019-06-01T09:58:13.601Z,39.51
2019-06-01T09:59:13.654Z,36.93
2019-06-01T10:00:13.582Z,36.46
2019-06-01T10:01:13.576Z,37.57
2019-06-01T10:02:13.563Z,37.35
2019-06-01T10:03:13.552Z,39.54
2019-06-01T10:04:13.541Z,40.53
2019-06-01T10:05:13.604Z,42.69
2019-06-01T10:06:14.369Z,43.19
2019-06-01T10:07:13.509Z,42.95
2019-06-01T10:08:13.500Z,41.06
2019-06-01T10:09:13.490Z,40.21
2019-06-01T10:10:13.486Z,39.31
2019-06-01T10:11:13.686Z,40.78
2019-06-01T10:12:13.460Z,40.01
2019-06-01T10:13:13.450Z,42.57
2019-06-01T10:14:14.236Z,39.98
2019-06-01T10:15:13.427Z,37.99
2019-06-01T10:16:13.418Z,40.06
2019-06-01T10:17:13.494Z,40.47
2019-06-01T10:18:13.402Z,38.96
2019-06-01T10:19:13.391Z,37.86
2019-06-01T10:20:13.379Z,37.15
2019-06-01T10:21:13.369Z,36.90
2019-06-01T10:22:13.358Z,35.69
2019-06-01T10:23:13.559Z,35.77
2019-06-01T10:24:13.342Z,36.74
2019-06-01T10:25:13.325Z,36.84
2019-06-01T10:26:13.319Z,39.45
2019-06-01T10:27:13.306Z,40.29
2019-06-01T10:28:13.309Z,41.31
2019-06-01T10:29:13.500Z,42.28
2019-06-01T10:30:13.280Z,39.35
2019-06-01T10:31:13.265Z,39.78
2019-06-01T10:32:13.267Z,40.62
2019-06-01T10:33:13.246Z,40.98
2019-06-01T10:34:13.235Z,42.89
2019-06-01T10:35:13.287Z,41.59
2019-06-01T10:36:20.634Z,40.31
2019-06-01T10:37:14.204Z,40.76
2019-06-01T10:38:13.195Z,41.35
2019-06-01T10:39:13.196Z,42.68
2019-06-01T10:40:13.173Z,44.54
2019-06-01T10:41:13.234Z,43.07
2019-06-01T10:42:13.153Z,41.39
2019-06-01T10:43:13.143Z,40.09
2019-06-01T10:44:13.131Z,40.35
2019-06-01T10:45:13.131Z,39.14
2019-06-01T10:46:13.112Z,38.93
2019-06-01T10:47:13.315Z,38.74
2019-06-01T10:48:13.092Z,37.65
2019-06-01T10:49:13.083Z,38.84
2019-06-01T10:50:13.072Z,38.93
2019-06-01T10:51:13.061Z,39.01
2019-06-01T10:52:13.054Z,38.80
2019-06-01T10:53:13.124Z,38.88
2019-06-01T10:54:13.033Z,38.39
2019-06-01T10:55:13.020Z,38.67
2019-06-01T10:56:13.011Z,37.49
2019-06-01T10:57:13.000Z,36.90
2019-06-01T10:58:12.995Z,36.65
2019-06-01T10:59:13.067Z,35.94
2019-06-01T11:00:12.971Z,35.84
2019-06-01T11:01:12.961Z,34.83
2019-06-01T11:02:12.951Z,35.69
2019-06-01T11:03:12.938Z,35.10
2019-06-01T11:04:12.928Z,35.49
2019-06-01T11:05:12.979Z,35.45
2019-06-01T11:06:12.911Z,36.62
2019-06-01T11:07:12.910Z,35.45
2019-06-01T11:08:12.889Z,35.35
2019-06-01T11:09:12.883Z,35.53
2019-06-01T11:10:12.869Z,35.45
2019-06-01T11:11:12.927Z,35.17
2019-06-01T11:12:12.854Z,37.29
2019-06-01T11:13:12.846Z,37.06
2019-06-01T11:14:12.841Z,36.16
2019-06-01T11:15:12.823Z,36.71
2019-06-01T11:16:12.811Z,37.00
2019-06-01T11:17:12.869Z,36.04
2019-06-01T11:18:12.810Z,36.10
2019-06-01T11:19:12.786Z,35.50
2019-06-01T11:20:12.777Z,35.61
2019-06-01T11:21:12.769Z,35.52
2019-06-01T11:22:12.763Z,36.82
2019-06-01T11:23:12.814Z,36.72
2019-06-01T11:24:12.785Z,36.90
2019-06-01T11:25:12.727Z,36.72
2019-06-01T11:26:12.815Z,37.25
2019-06-01T11:27:12.709Z,37.96
2019-06-01T11:28:12.704Z,37.27
2019-06-01T11:29:12.755Z,38.39
2019-06-01T11:30:12.680Z,37.19
2019-06-01T11:31:12.670Z,36.18
2019-06-01T11:32:12.660Z,36.77
2019-06-01T11:33:12.652Z,34.93
2019-06-01T11:34:12.641Z,35.65
2019-06-01T11:35:12.843Z,35.55
2019-06-01T11:36:12.621Z,35.93
2019-06-01T11:37:15.396Z,36.28
2019-06-01T11:38:12.602Z,35.40
2019-06-01T11:39:12.601Z,35.71
2019-06-01T11:40:12.586Z,36.00
2019-06-01T11:41:12.639Z,34.21
2019-06-01T11:42:12.561Z,34.18
2019-06-01T11:43:12.551Z,35.69
2019-06-01T11:44:12.546Z,34.58
2019-06-01T11:45:12.534Z,34.00
2019-06-01T11:46:12.529Z,33.40
2019-06-01T11:47:12.580Z,33.09
2019-06-01T11:48:12.514Z,32.78
2019-06-01T11:49:12.495Z,33.77
2019-06-01T11:50:12.483Z,34.16
2019-06-01T11:51:12.474Z,34.96
2019-06-01T11:52:12.465Z,34.28
2019-06-01T11:53:12.521Z,34.16
2019-06-01T11:54:12.453Z,34.58
2019-06-01T11:55:12.440Z,34.70
2019-06-01T11:56:12.429Z,36.10
2019-06-01T11:57:12.442Z,36.71
2019-06-01T11:58:12.418Z,37.02
2019-06-01T11:59:12.468Z,36.69
2019-06-01T12:00:12.388Z,35.85
2019-06-01T12:01:12.387Z,36.11
2019-06-01T12:02:12.381Z,35.94
2019-06-01T12:03:12.364Z,35.06
2019-06-01T12:04:12.349Z,33.38
2019-06-01T12:05:12.406Z,35.09
2019-06-01T12:06:12.329Z,33.84
2019-06-01T12:07:17.456Z,35.75
2019-06-01T12:08:13.311Z,34.14
2019-06-01T12:09:12.313Z,34.75
2019-06-01T12:10:12.288Z,32.87
2019-06-01T12:11:12.348Z,33.67
2019-06-01T12:12:12.270Z,33.18
2019-06-01T12:13:12.259Z,32.84
2019-06-01T12:14:12.248Z,31.64
2019-06-01T12:15:12.318Z,31.57
2019-06-01T12:16:12.230Z,34.08
2019-06-01T12:17:12.288Z,33.89
2019-06-01T12:18:12.210Z,34.03
2019-06-01T12:19:12.199Z,34.48
2019-06-01T12:20:12.191Z,31.80
2019-06-01T12:21:12.178Z,33.09
2019-06-01T12:22:12.169Z,33.69
2019-06-01T12:23:12.226Z,33.98
2019-06-01T12:24:12.154Z,32.67
2019-06-01T12:25:12.143Z,32.13
2019-06-01T12:26:12.130Z,32.71
2019-06-01T12:27:12.123Z,33.31
2019-06-01T12:28:12.110Z,33.65
2019-06-01T12:29:12.168Z,34.19
2019-06-01T12:30:12.091Z,35.85
2019-06-01T12:31:12.080Z,35.61
2019-06-01T12:32:12.073Z,34.39
2019-06-01T12:33:12.060Z,33.70
2019-06-01T12:34:12.050Z,33.40
2019-06-01T12:35:12.107Z,32.89
2019-06-01T12:36:12.032Z,34.65
2019-06-01T12:37:12.026Z,37.19
2019-06-01T12:38:12.011Z,35.50
2019-06-01T12:39:12.006Z,36.90
2019-06-01T12:40:11.993Z,36.88
2019-06-01T12:41:12.050Z,35.47
2019-06-01T12:42:11.970Z,34.55
2019-06-01T12:43:11.969Z,34.34
2019-06-01T12:44:11.951Z,34.44
2019-06-01T12:45:11.942Z,33.75
2019-06-01T12:46:11.931Z,34.13
2019-06-01T12:47:11.992Z,34.23
2019-06-01T12:48:11.921Z,33.75
2019-06-01T12:49:11.901Z,33.54
2019-06-01T12:50:11.897Z,32.58
2019-06-01T12:51:11.888Z,32.92
2019-06-01T12:52:11.873Z,33.38